createdAt,value
2017-08-12T00:00:03.163Z,0
2017-08-12T00:01:12.809Z,0
2017-08-12T00:02:23.081Z,0
2017-08-12T00:03:33.048Z,0
2017-08-12T00:04:43.320Z,0
2017-08-12T00:05:52.964Z,0
2017-08-12T00:07:02.607Z,0
2017-08-12T00:08:12.567Z,0
2017-08-12T00:09:22.845Z,0
2017-08-12T00:10:32.801Z,0
2017-08-12T00:11:43.073Z,0
2017-08-12T00:12:53.027Z,0
2017-08-12T00:14:03.299Z,0
2017-08-12T00:15:13.572Z,0
2017-08-12T00:16:23.843Z,0
2017-08-12T00:17:33.803Z,0
2017-08-12T00:18:44.077Z,0
2017-08-12T00:19:54.346Z,0
2017-08-12T00:21:04.305Z,0
2017-08-12T00:22:14.263Z,0
2017-08-12T00:23:24.532Z,0
2017-08-12T00:24:34.490Z,0
2017-08-12T00:25:44.758Z,0
2017-08-12T00:26:55.028Z,0
2017-08-12T00:28:04.984Z,0
2017-08-12T00:29:15.260Z,0
2017-08-12T00:30:25.214Z,0
2017-08-12T00:31:35.484Z,0
2017-08-12T00:32:45.446Z,0
2017-08-12T00:33:55.404Z,0
2017-08-12T00:35:05.681Z,0
2017-08-12T00:36:15.959Z,0
2017-08-12T00:37:26.232Z,0
2017-08-12T00:38:36.189Z,0
2017-08-12T00:39:46.459Z,0
2017-08-12T00:40:55.792Z,0
2017-08-12T00:42:06.064Z,0
2017-08-12T00:43:16.020Z,0
2017-08-12T00:44:26.295Z,0
2017-08-12T00:45:36.252Z,0
2017-08-12T00:46:46.533Z,0
2017-08-12T00:47:56.803Z,0
2017-08-12T00:49:07.074Z,0
2017-08-12T00:50:17.342Z,0
2017-08-12T00:51:27.314Z,0
2017-08-12T00:52:37.584Z,0
2017-08-12T00:53:47.854Z,0
2017-08-12T00:54:58.124Z,0
2017-08-12T00:56:08.082Z,0
2017-08-12T00:57:18.353Z,0
2017-08-12T00:58:28.625Z,0
2017-08-12T00:59:38.264Z,0
2017-08-12T01:00:47.957Z,0
2017-08-12T01:01:57.912Z,0
2017-08-12T01:03:07.559Z,0
2017-08-12T01:04:17.200Z,0
2017-08-12T01:05:27.475Z,0
2017-08-12T01:06:37.434Z,0
2017-08-12T01:07:47.706Z,0
2017-08-12T01:08:57.658Z,0
2017-08-12T01:10:07.615Z,0
2017-08-12T01:11:17.570Z,0
2017-08-12T01:12:27.525Z,0
2017-08-12T01:13:37.503Z,0
2017-08-12T01:14:47.805Z,0
2017-08-12T01:15:58.095Z,0
2017-08-12T01:17:07.736Z,0
2017-08-12T01:18:17.692Z,0
2017-08-12T01:19:27.338Z,0
2017-08-12T01:20:37.612Z,0
2017-08-12T01:21:47.878Z,0
2017-08-12T01:22:58.158Z,0
2017-08-12T01:24:08.120Z,0
2017-08-12T01:25:18.393Z,0
2017-08-12T01:26:28.670Z,0
2017-08-12T01:27:38.626Z,0
2017-08-12T01:28:48.902Z,0
2017-08-12T01:29:58.857Z,0
2017-08-12T01:31:08.815Z,0
2017-08-12T01:32:19.102Z,0
2017-08-12T01:33:28.753Z,0
2017-08-12T01:34:39.024Z,0
2017-08-12T01:35:49.298Z,0
2017-08-12T01:36:59.571Z,0
2017-08-12T01:38:09.845Z,0
2017-08-12T01:39:19.806Z,0
2017-08-12T01:40:30.085Z,0
2017-08-12T01:41:40.047Z,0
2017-08-12T01:42:50.318Z,0
2017-08-12T01:44:00.590Z,0
2017-08-12T01:45:10.869Z,0
2017-08-12T01:46:20.827Z,0
2017-08-12T01:47:31.106Z,0
2017-08-12T01:48:41.376Z,0
2017-08-12T01:49:51.649Z,0
2017-08-12T01:51:01.923Z,0
2017-08-12T01:52:12.198Z,0
2017-08-12T01:53:21.844Z,0
2017-08-12T01:54:32.118Z,0
2017-08-12T01:55:42.102Z,0
2017-08-12T01:56:52.380Z,0
2017-08-12T01:58:02.653Z,0
2017-08-12T01:59:12.612Z,0
2017-08-12T02:00:22.255Z,0
2017-08-12T02:01:32.536Z,0
2017-08-12T02:02:42.178Z,0
2017-08-12T02:03:52.448Z,0
2017-08-12T02:05:02.751Z,0
2017-08-12T02:06:12.708Z,0
2017-08-12T02:07:22.352Z,0
2017-08-12T02:08:32.308Z,0
2017-08-12T02:09:41.953Z,0
2017-08-12T02:10:52.223Z,0
2017-08-12T02:12:02.493Z,0
2017-08-12T02:13:12.451Z,0
2017-08-12T02:14:21.878Z,0
2017-08-12T02:15:32.151Z,0
2017-08-12T02:16:41.791Z,0
2017-08-12T02:17:52.064Z,0
2017-08-12T02:19:02.360Z,0
2017-08-12T02:20:12.638Z,0
2017-08-12T02:21:22.907Z,0
2017-08-12T02:22:33.176Z,0
2017-08-12T02:23:43.446Z,0
2017-08-12T02:24:53.405Z,0
2017-08-12T02:26:03.675Z,0
2017-08-12T02:27:13.629Z,0
2017-08-12T02:28:23.899Z,0
2017-08-12T02:29:34.172Z,0
2017-08-12T02:30:44.448Z,0
2017-08-12T02:31:54.725Z,0
2017-08-12T02:33:04.996Z,0
2017-08-12T02:34:15.275Z,0
2017-08-12T02:35:25.545Z,0
2017-08-12T02:36:35.189Z,0
2017-08-12T02:37:45.462Z,0
2017-08-12T02:38:55.425Z,0
2017-08-12T02:40:05.383Z,0
2017-08-12T02:41:15.345Z,0
2017-08-12T02:42:24.991Z,0
2017-08-12T02:43:34.953Z,0
2017-08-12T02:44:45.229Z,0
2017-08-12T02:45:55.503Z,0
2017-08-12T02:47:05.456Z,0
2017-08-12T02:48:15.416Z,0
2017-08-12T02:49:25.696Z,0
2017-08-12T02:50:35.978Z,0
2017-08-12T02:51:45.627Z,0
2017-08-12T02:52:55.586Z,0
2017-08-12T02:54:05.884Z,0
2017-08-12T02:55:15.853Z,0
2017-08-12T02:56:26.134Z,0
2017-08-12T02:57:36.402Z,0
2017-08-12T02:58:46.676Z,0
2017-08-12T02:59:56.636Z,0
2017-08-12T03:01:06.907Z,0
2017-08-12T03:02:16.867Z,0
2017-08-12T03:03:27.143Z,0
2017-08-12T03:04:37.419Z,0
2017-08-12T03:05:47.064Z,0
2017-08-12T03:06:57.022Z,0
2017-08-12T03:08:07.295Z,0
2017-08-12T03:09:17.590Z,0
2017-08-12T03:10:27.866Z,0
2017-08-12T03:11:38.138Z,0
2017-08-12T03:12:48.407Z,0
2017-08-12T03:13:58.678Z,0
2017-08-12T03:15:08.634Z,0
2017-08-12T03:16:18.588Z,0
2017-08-12T03:17:28.543Z,0
2017-08-12T03:18:38.814Z,0
2017-08-12T03:19:49.086Z,0
2017-08-12T03:20:59.387Z,0
2017-08-12T03:22:09.657Z,0
2017-08-12T03:23:19.298Z,0
2017-08-12T03:24:28.940Z,0
2017-08-12T03:25:38.898Z,0
2017-08-12T03:26:49.167Z,0
2017-08-12T03:27:59.121Z,0
2017-08-12T03:29:09.390Z,0
2017-08-12T03:30:19.665Z,5
2017-08-12T03:31:29.636Z,5
2017-08-12T03:32:39.593Z,5
2017-08-12T03:33:49.549Z,5
2017-08-12T03:34:59.818Z,5
2017-08-12T03:36:09.774Z,5
2017-08-12T03:37:20.044Z,5
2017-08-12T03:38:30.005Z,5
2017-08-12T03:39:40.274Z,10
2017-08-12T03:40:50.545Z,10
2017-08-12T03:42:00.504Z,10
2017-08-12T03:43:10.459Z,10
2017-08-12T03:44:20.728Z,10
2017-08-12T03:45:31.017Z,10
2017-08-12T03:46:41.294Z,10
2017-08-12T03:47:51.565Z,15
2017-08-12T03:49:01.526Z,15
2017-08-12T03:50:11.486Z,15
2017-08-12T03:51:21.446Z,20
2017-08-12T03:52:31.404Z,20
2017-08-12T03:53:41.366Z,25
2017-08-12T03:54:51.321Z,25
2017-08-12T03:56:01.593Z,30
2017-08-12T03:57:11.556Z,30
2017-08-12T03:58:21.823Z,30
2017-08-12T03:59:31.791Z,25
2017-08-12T04:00:42.058Z,25
2017-08-12T04:01:52.014Z,20
2017-08-12T04:03:02.287Z,20
2017-08-12T04:04:12.561Z,20
2017-08-12T04:05:22.222Z,20
2017-08-12T04:06:32.490Z,20
2017-08-12T04:07:42.131Z,25
2017-08-12T04:08:52.094Z,25
2017-08-12T04:10:01.737Z,25
2017-08-12T04:11:12.014Z,25
2017-08-12T04:12:22.289Z,30
2017-08-12T04:13:32.560Z,35
2017-08-12T04:14:42.830Z,40
2017-08-12T04:15:53.102Z,40
2017-08-12T04:17:03.371Z,40
2017-08-12T04:18:13.646Z,40
2017-08-12T04:19:23.922Z,35
2017-08-12T04:20:33.883Z,35
2017-08-12T04:21:44.160Z,40
2017-08-12T04:22:54.436Z,45
2017-08-12T04:24:04.083Z,45
2017-08-12T04:25:14.049Z,45
2017-08-12T04:26:24.323Z,45
2017-08-12T04:27:34.627Z,45
2017-08-12T04:28:44.896Z,50
2017-08-12T04:29:55.167Z,55
2017-08-12T04:31:05.439Z,55
2017-08-12T04:32:15.399Z,55
2017-08-12T04:33:25.353Z,60
2017-08-12T04:34:34.995Z,60
2017-08-12T04:35:45.275Z,70
2017-08-12T04:36:55.231Z,80
2017-08-12T04:38:05.503Z,85
2017-08-12T04:39:15.459Z,85
2017-08-12T04:40:25.101Z,85
2017-08-12T04:41:35.384Z,80
2017-08-12T04:42:45.656Z,80
2017-08-12T04:43:55.617Z,75
2017-08-12T04:45:05.889Z,75
2017-08-12T04:46:16.160Z,80
2017-08-12T04:47:26.437Z,85
2017-08-12T04:48:36.401Z,85
2017-08-12T04:49:46.671Z,85
2017-08-12T04:50:56.626Z,85
2017-08-12T04:52:06.587Z,80
2017-08-12T04:53:16.860Z,85
2017-08-12T04:54:26.838Z,90
2017-08-12T04:55:36.794Z,95
2017-08-12T04:56:46.758Z,90
2017-08-12T04:57:56.720Z,85
2017-08-12T04:59:06.994Z,85
2017-08-12T05:00:16.641Z,90
2017-08-12T05:01:26.920Z,100
2017-08-12T05:02:36.570Z,105
2017-08-12T05:03:46.531Z,105
2017-08-12T05:04:56.805Z,110
2017-08-12T05:06:07.078Z,115
2017-08-12T05:07:17.350Z,120
2017-08-12T05:08:27.310Z,125
2017-08-12T05:09:37.583Z,130
2017-08-12T05:10:47.540Z,130
2017-08-12T05:11:57.499Z,135
2017-08-12T05:13:07.771Z,130
2017-08-12T05:14:17.727Z,135
2017-08-12T05:15:28.004Z,145
2017-08-12T05:16:37.972Z,150
2017-08-12T05:17:48.250Z,140
2017-08-12T05:18:58.524Z,140
2017-08-12T05:20:08.795Z,130
2017-08-12T05:21:19.073Z,130
2017-08-12T05:22:29.032Z,125
2017-08-12T05:23:39.310Z,120
2017-08-12T05:24:49.584Z,120
2017-08-12T05:25:59.856Z,115
2017-08-12T05:27:09.810Z,120
2017-08-12T05:28:20.089Z,120
2017-08-12T05:29:30.049Z,120
2017-08-12T05:30:40.323Z,120
2017-08-12T05:31:50.600Z,120
2017-08-12T05:33:00.878Z,120
2017-08-12T05:34:10.896Z,125
2017-08-12T05:35:21.181Z,125
2017-08-12T05:36:31.453Z,130
2017-08-12T05:37:41.759Z,135
2017-08-12T05:38:52.039Z,145
2017-08-12T05:40:01.999Z,150
2017-08-12T05:41:12.296Z,155
2017-08-12T05:42:22.579Z,160
2017-08-12T05:43:32.858Z,165
2017-08-12T05:44:42.819Z,165
2017-08-12T05:45:53.095Z,160
2017-08-12T05:47:03.058Z,155
2017-08-12T05:48:13.339Z,150
2017-08-12T05:49:23.612Z,145
2017-08-12T05:50:33.886Z,150
2017-08-12T05:51:44.159Z,150
2017-08-12T05:52:54.432Z,145
2017-08-12T05:54:04.393Z,140
2017-08-12T05:55:14.667Z,135
2017-08-12T05:56:24.634Z,145
2017-08-12T05:57:34.925Z,145
2017-08-12T05:58:45.225Z,155
2017-08-12T05:59:55.496Z,170
2017-08-12T06:01:05.458Z,180
2017-08-12T06:02:15.418Z,180
2017-08-12T06:03:25.074Z,185
2017-08-12T06:04:35.376Z,190
2017-08-12T06:05:45.660Z,200
2017-08-12T06:06:55.616Z,200
2017-08-12T06:08:05.573Z,195
2017-08-12T06:09:15.845Z,190
2017-08-12T06:10:26.124Z,195
2017-08-12T06:11:36.397Z,190
2017-08-12T06:12:46.355Z,195
2017-08-12T06:13:56.626Z,200
2017-08-12T06:15:06.271Z,205
2017-08-12T06:16:15.915Z,205
2017-08-12T06:17:26.184Z,205
2017-08-12T06:18:36.457Z,200
2017-08-12T06:19:46.743Z,205
2017-08-12T06:20:57.021Z,205
2017-08-12T06:22:07.296Z,205
2017-08-12T06:23:17.598Z,210
2017-08-12T06:24:27.563Z,215
2017-08-12T06:25:37.523Z,220
2017-08-12T06:26:47.801Z,215
2017-08-12T06:27:58.105Z,225
2017-08-12T06:29:08.378Z,230
2017-08-12T06:30:18.660Z,240
2017-08-12T06:31:28.621Z,245
2017-08-12T06:32:38.265Z,250
2017-08-12T06:33:48.538Z,260
2017-08-12T06:34:58.811Z,255
2017-08-12T06:36:08.775Z,245
2017-08-12T06:37:19.053Z,230
2017-08-12T06:38:29.327Z,250
2017-08-12T06:39:39.290Z,250
2017-08-12T06:40:49.253Z,265
2017-08-12T06:41:59.532Z,280
2017-08-12T06:43:09.492Z,290
2017-08-12T06:44:19.459Z,270
2017-08-12T06:45:29.732Z,255
2017-08-12T06:46:40.015Z,245
2017-08-12T06:47:50.289Z,245
2017-08-12T06:49:00.567Z,270
2017-08-12T06:50:10.843Z,295
2017-08-12T06:51:21.124Z,300
2017-08-12T06:52:31.398Z,315
2017-08-12T06:53:41.043Z,335
2017-08-12T06:54:51.319Z,340
2017-08-12T06:56:01.592Z,310
2017-08-12T06:57:11.878Z,280
2017-08-12T06:58:21.522Z,255
2017-08-12T06:59:31.798Z,230
2017-08-12T07:00:41.133Z,225
2017-08-12T07:01:51.409Z,225
2017-08-12T07:03:01.684Z,235
2017-08-12T07:04:11.969Z,235
2017-08-12T07:05:22.248Z,230
2017-08-12T07:06:32.211Z,230
2017-08-12T07:07:42.174Z,230
2017-08-12T07:08:52.449Z,230
2017-08-12T07:10:02.413Z,245
2017-08-12T07:11:12.063Z,255
2017-08-12T07:12:21.738Z,255
2017-08-12T07:13:32.019Z,265
2017-08-12T07:14:41.979Z,305
2017-08-12T07:15:51.940Z,305
2017-08-12T07:17:02.217Z,330
2017-08-12T07:18:12.491Z,330
2017-08-12T07:19:22.768Z,355
2017-08-12T07:20:32.735Z,375
2017-08-12T07:21:43.012Z,385
2017-08-12T07:22:53.288Z,385
2017-08-12T07:24:03.249Z,390
2017-08-12T07:25:13.208Z,385
2017-08-12T07:26:22.544Z,360
2017-08-12T07:27:32.818Z,360
2017-08-12T07:28:42.780Z,365
2017-08-12T07:29:53.058Z,355
2017-08-12T07:31:02.713Z,345
2017-08-12T07:32:12.994Z,320
2017-08-12T07:33:23.278Z,325
2017-08-12T07:34:33.551Z,305
2017-08-12T07:35:43.516Z,305
2017-08-12T07:36:53.476Z,290
2017-08-12T07:38:03.752Z,280
2017-08-12T07:39:14.032Z,275
2017-08-12T07:40:23.990Z,285
2017-08-12T07:41:33.957Z,310
2017-08-12T07:42:44.243Z,340
2017-08-12T07:43:54.214Z,365
2017-08-12T07:45:04.174Z,380
2017-08-12T07:46:14.136Z,370
2017-08-12T07:47:24.100Z,370
2017-08-12T07:48:34.383Z,355
2017-08-12T07:49:44.658Z,320
2017-08-12T07:50:54.623Z,285
2017-08-12T07:52:04.281Z,265
2017-08-12T07:53:14.568Z,270
2017-08-12T07:54:24.219Z,280
2017-08-12T07:55:34.499Z,285
2017-08-12T07:56:44.150Z,275
2017-08-12T07:57:54.425Z,265
2017-08-12T07:59:04.390Z,275
2017-08-12T08:00:14.679Z,270
2017-08-12T08:01:24.677Z,250
2017-08-12T08:02:34.643Z,245
2017-08-12T08:03:44.604Z,250
2017-08-12T08:04:54.883Z,240
2017-08-12T08:06:04.529Z,270
2017-08-12T08:07:14.805Z,285
2017-08-12T08:08:25.083Z,295
2017-08-12T08:09:35.360Z,310
2017-08-12T08:10:45.638Z,315
2017-08-12T08:11:55.923Z,315
2017-08-12T08:13:06.204Z,320
2017-08-12T08:14:16.485Z,325
2017-08-12T08:15:26.453Z,320
2017-08-12T08:16:36.419Z,320
2017-08-12T08:17:46.389Z,325
2017-08-12T08:18:56.350Z,330
2017-08-12T08:20:06.000Z,355
2017-08-12T08:21:16.284Z,370
2017-08-12T08:22:26.245Z,365
2017-08-12T08:23:36.525Z,355
2017-08-12T08:24:46.812Z,340
2017-08-12T08:25:56.776Z,345
2017-08-12T08:27:07.057Z,345
2017-08-12T08:28:17.335Z,315
2017-08-12T08:29:27.304Z,290
2017-08-12T08:30:37.579Z,285
2017-08-12T08:31:47.540Z,295
2017-08-12T08:32:57.505Z,320
2017-08-12T08:34:07.779Z,335
2017-08-12T08:35:17.773Z,335
2017-08-12T08:36:27.735Z,355
2017-08-12T08:37:38.010Z,340
2017-08-12T08:38:48.288Z,330
2017-08-12T08:39:58.574Z,295
2017-08-12T08:41:08.543Z,260
2017-08-12T08:42:18.190Z,250
2017-08-12T08:43:27.840Z,250
2017-08-12T08:44:38.119Z,260
2017-08-12T08:45:48.401Z,250
2017-08-12T08:46:58.678Z,240
2017-08-12T08:48:08.645Z,260
2017-08-12T08:49:18.608Z,280
2017-08-12T08:50:28.255Z,275
2017-08-12T08:51:38.536Z,265
2017-08-12T08:52:48.505Z,260
2017-08-12T08:53:58.790Z,260
2017-08-12T08:55:09.070Z,270
2017-08-12T08:56:19.037Z,280
2017-08-12T08:57:29.309Z,300
2017-08-12T08:58:39.584Z,320
2017-08-12T08:59:49.233Z,325
2017-08-12T09:00:59.509Z,320
2017-08-12T09:02:09.157Z,325
2017-08-12T09:03:19.439Z,320
2017-08-12T09:04:29.717Z,315
2017-08-12T09:05:39.676Z,325
2017-08-12T09:06:49.956Z,325
2017-08-12T09:08:00.228Z,335
2017-08-12T09:09:10.192Z,325
2017-08-12T09:10:19.836Z,330
2017-08-12T09:11:30.117Z,335
2017-08-12T09:12:40.396Z,340
2017-08-12T09:13:50.673Z,340
2017-08-12T09:15:00.631Z,345
2017-08-12T09:16:10.916Z,335
2017-08-12T09:17:20.567Z,335
2017-08-12T09:18:30.851Z,330
2017-08-12T09:19:41.130Z,330
2017-08-12T09:20:51.427Z,350
2017-08-12T09:22:01.718Z,375
2017-08-12T09:23:11.686Z,400
2017-08-12T09:24:21.649Z,400
2017-08-12T09:25:31.928Z,405
2017-08-12T09:26:42.209Z,405
2017-08-12T09:27:52.169Z,420
2017-08-12T09:29:02.449Z,405
2017-08-12T09:30:12.730Z,410
2017-08-12T09:31:22.689Z,420
2017-08-12T09:32:32.967Z,425
2017-08-12T09:33:43.241Z,430
2017-08-12T09:34:53.204Z,445
2017-08-12T09:36:03.165Z,450
2017-08-12T09:37:13.171Z,470
2017-08-12T09:38:23.136Z,470
2017-08-12T09:39:33.414Z,460
2017-08-12T09:40:43.380Z,480
2017-08-12T09:41:53.342Z,485
2017-08-12T09:43:03.620Z,480
2017-08-12T09:44:13.898Z,495
2017-08-12T09:45:24.174Z,485
2017-08-12T09:46:34.456Z,470
2017-08-12T09:47:44.736Z,490
2017-08-12T09:48:54.698Z,470
2017-08-12T09:50:04.984Z,465
2017-08-12T09:51:15.262Z,430
2017-08-12T09:52:25.539Z,395
2017-08-12T09:53:35.503Z,435
2017-08-12T09:54:45.781Z,405
2017-08-12T09:55:55.744Z,465
2017-08-12T09:57:05.705Z,490
2017-08-12T09:58:15.982Z,500
2017-08-12T09:59:26.257Z,545
2017-08-12T10:00:36.538Z,510
2017-08-12T10:01:46.817Z,490
2017-08-12T10:02:57.096Z,490
2017-08-12T10:04:07.376Z,505
2017-08-12T10:05:17.342Z,510
2017-08-12T10:06:27.307Z,540
2017-08-12T10:07:37.592Z,540
2017-08-12T10:08:47.242Z,540
2017-08-12T10:09:57.520Z,520
2017-08-12T10:11:07.484Z,490
2017-08-12T10:12:17.448Z,440
2017-08-12T10:13:27.096Z,440
2017-08-12T10:14:37.062Z,405
2017-08-12T10:15:47.343Z,395
2017-08-12T10:16:57.621Z,395
2017-08-12T10:18:07.922Z,400
2017-08-12T10:19:17.890Z,410
2017-08-12T10:20:28.175Z,405
2017-08-12T10:21:38.454Z,410
2017-08-12T10:22:48.418Z,405
2017-08-12T10:23:58.695Z,425
2017-08-12T10:25:08.977Z,425
2017-08-12T10:26:18.944Z,430
2017-08-12T10:27:29.222Z,445
2017-08-12T10:28:39.503Z,465
2017-08-12T10:29:49.782Z,485
2017-08-12T10:31:00.160Z,495
2017-08-12T10:32:09.810Z,515
2017-08-12T10:33:19.777Z,520
2017-08-12T10:34:30.055Z,515
2017-08-12T10:35:40.018Z,515
2017-08-12T10:36:49.979Z,510
2017-08-12T10:37:59.949Z,535
2017-08-12T10:39:09.597Z,540
2017-08-12T10:40:19.899Z,525
2017-08-12T10:41:29.862Z,530
2017-08-12T10:42:39.825Z,530
2017-08-12T10:43:50.100Z,535
2017-08-12T10:45:00.063Z,520
2017-08-12T10:46:10.343Z,515
2017-08-12T10:47:20.307Z,520
2017-08-12T10:48:29.958Z,530
2017-08-12T10:49:39.920Z,545
2017-08-12T10:50:49.885Z,555
2017-08-12T10:51:59.851Z,565
2017-08-12T10:53:09.818Z,575
2017-08-12T10:54:20.097Z,590
2017-08-12T10:55:30.061Z,580
2017-08-12T10:56:40.028Z,570
2017-08-12T10:57:50.305Z,545
2017-08-12T10:59:00.611Z,525
2017-08-12T11:00:10.591Z,510
2017-08-12T11:01:20.556Z,485
2017-08-12T11:02:30.524Z,470
2017-08-12T11:03:40.491Z,480
2017-08-12T11:04:50.770Z,490
2017-08-12T11:06:01.047Z,520
2017-08-12T11:07:11.325Z,560
2017-08-12T11:08:21.606Z,605
2017-08-12T11:09:31.574Z,605
2017-08-12T11:10:41.894Z,615
2017-08-12T11:11:52.179Z,620
2017-08-12T11:13:02.462Z,615
2017-08-12T11:14:12.740Z,610
2017-08-12T11:15:22.703Z,575
2017-08-12T11:16:32.666Z,560
2017-08-12T11:17:42.628Z,560
2017-08-12T11:18:52.589Z,565
2017-08-12T11:20:02.868Z,575
2017-08-12T11:21:13.153Z,625
2017-08-12T11:22:22.804Z,690
2017-08-12T11:23:33.085Z,705
2017-08-12T11:24:42.736Z,720
2017-08-12T11:25:53.015Z,720
2017-08-12T11:27:02.979Z,730
2017-08-12T11:28:13.258Z,750
2017-08-12T11:29:23.543Z,820
2017-08-12T11:30:33.194Z,875
2017-08-12T11:31:43.476Z,1200
2017-08-12T11:32:53.755Z,1385
2017-08-12T11:34:04.036Z,1415
2017-08-12T11:35:14.317Z,1155
2017-08-12T11:36:24.284Z,1610
2017-08-12T11:37:34.568Z,1505
2017-08-12T11:38:44.849Z,1375
2017-08-12T11:39:55.136Z,1015
2017-08-12T11:41:05.109Z,725
2017-08-12T11:42:15.396Z,755
2017-08-12T11:43:25.364Z,915
2017-08-12T11:44:35.330Z,1145
2017-08-12T11:45:45.612Z,525
2017-08-12T11:46:55.583Z,500
2017-08-12T11:48:05.553Z,495
2017-08-12T11:49:15.210Z,525
2017-08-12T11:50:25.178Z,495
2017-08-12T11:51:35.147Z,455
2017-08-12T11:52:45.435Z,450
2017-08-12T11:53:55.714Z,455
2017-08-12T11:55:05.994Z,450
2017-08-12T11:56:15.682Z,480
2017-08-12T11:57:25.967Z,535
2017-08-12T11:58:35.932Z,1280
2017-08-12T11:59:45.897Z,780
2017-08-12T12:01:03.797Z,2300
2017-08-12T12:02:13.766Z,2150
2017-08-12T12:03:24.046Z,1950
2017-08-12T12:04:34.329Z,2340
2017-08-12T12:05:44.305Z,960
2017-08-12T12:06:54.587Z,680
2017-08-12T12:08:04.867Z,990
2017-08-12T12:09:14.839Z,1525
2017-08-12T12:10:25.121Z,1570
2017-08-12T12:11:35.445Z,2025
2017-08-12T12:12:45.414Z,2120
2017-08-12T12:13:55.710Z,2515
2017-08-12T12:15:05.365Z,2260
2017-08-12T12:16:15.340Z,2085
2017-08-12T12:17:24.992Z,1995
2017-08-12T12:18:34.962Z,660
2017-08-12T12:19:44.620Z,715
2017-08-12T12:20:54.589Z,1295
2017-08-12T12:22:04.877Z,2685
2017-08-12T12:23:15.156Z,2900
2017-08-12T12:24:25.448Z,2770
2017-08-12T12:25:35.417Z,700
2017-08-12T12:26:45.386Z,625
2017-08-12T12:27:55.359Z,575
2017-08-12T12:29:05.644Z,560
2017-08-12T12:30:15.932Z,525
2017-08-12T12:31:26.214Z,500
2017-08-12T12:32:35.882Z,510
2017-08-12T12:33:47.852Z,505
2017-08-12T12:34:58.141Z,480
2017-08-12T12:36:08.116Z,540
2017-08-12T12:37:17.770Z,665
2017-08-12T12:38:27.736Z,930
2017-08-12T12:39:37.704Z,1520
2017-08-12T12:40:47.357Z,865
2017-08-12T12:41:57.007Z,1395
2017-08-12T12:43:06.981Z,570
2017-08-12T12:44:17.262Z,450
2017-08-12T12:45:27.545Z,375
2017-08-12T12:46:37.512Z,355
2017-08-12T12:47:47.795Z,425
2017-08-12T12:48:57.764Z,605
2017-08-12T12:50:07.417Z,1295
2017-08-12T12:51:17.699Z,2685
2017-08-12T12:52:27.981Z,2460
2017-08-12T12:53:37.959Z,2480
2017-08-12T12:54:47.926Z,2665
2017-08-12T12:55:58.205Z,845
2017-08-12T12:57:08.487Z,800
2017-08-12T12:58:18.460Z,1165
2017-08-12T12:59:28.425Z,1340
2017-08-12T13:00:38.396Z,1245
2017-08-12T13:01:48.678Z,1135
2017-08-12T13:02:58.960Z,3550
2017-08-12T13:04:09.248Z,2720
2017-08-12T13:05:19.217Z,800
2017-08-12T13:06:29.500Z,670
2017-08-12T13:07:39.780Z,780
2017-08-12T13:08:50.064Z,660
2017-08-12T13:10:00.350Z,1070
2017-08-12T13:11:10.321Z,1120
2017-08-12T13:12:20.617Z,905
2017-08-12T13:13:30.902Z,1470
2017-08-12T13:14:41.184Z,920
2017-08-12T13:15:51.464Z,1470
2017-08-12T13:17:01.748Z,1305
2017-08-12T13:18:11.089Z,1135
2017-08-12T13:19:21.054Z,1605
2017-08-12T13:20:31.348Z,765
2017-08-12T13:21:41.627Z,3100
2017-08-12T13:22:51.281Z,1130
2017-08-12T13:24:01.582Z,2220
2017-08-12T13:25:11.547Z,2675
2017-08-12T13:26:21.202Z,2595
2017-08-12T13:27:31.479Z,3270
2017-08-12T13:28:41.133Z,1880
2017-08-12T13:29:51.414Z,3330
2017-08-12T13:31:01.703Z,3040
2017-08-12T13:32:11.992Z,1580
2017-08-12T13:33:22.289Z,3570
2017-08-12T13:34:32.260Z,2680
2017-08-12T13:35:42.244Z,3260
2017-08-12T13:36:52.535Z,2945
2017-08-12T13:38:02.843Z,2105
2017-08-12T13:39:13.129Z,1565
2017-08-12T13:40:23.422Z,2260
2017-08-12T13:41:33.713Z,2470
2017-08-12T13:42:44.002Z,855
2017-08-12T13:43:54.298Z,1415
2017-08-12T13:45:04.582Z,2190
2017-08-12T13:46:14.549Z,2015
2017-08-12T13:47:24.833Z,1935
2017-08-12T13:48:34.804Z,2190
2017-08-12T13:49:45.096Z,2275
2017-08-12T13:50:55.063Z,1725
2017-08-12T13:52:04.726Z,2115
2017-08-12T13:53:15.016Z,3235
2017-08-12T13:54:24.672Z,3050
2017-08-12T13:55:34.643Z,1455
2017-08-12T13:56:44.619Z,1045
2017-08-12T13:57:54.905Z,880
2017-08-12T13:59:05.187Z,1100
2017-08-12T14:00:15.478Z,2300
2017-08-12T14:01:25.459Z,1960
2017-08-12T14:02:35.120Z,1700
2017-08-12T14:03:45.098Z,1585
2017-08-12T14:04:55.381Z,1700
2017-08-12T14:06:05.044Z,1970
2017-08-12T14:07:17.541Z,1505
2017-08-12T14:08:27.226Z,1760
2017-08-12T14:09:37.518Z,2025
2017-08-12T14:10:47.805Z,2220
2017-08-12T14:11:57.784Z,1860
2017-08-12T14:13:07.754Z,1030
2017-08-12T14:14:18.041Z,1375
2017-08-12T14:15:28.008Z,2280
2017-08-12T14:16:38.317Z,2020
2017-08-12T14:17:47.970Z,2245
2017-08-12T14:18:58.254Z,1215
2017-08-12T14:20:07.913Z,2235
2017-08-12T14:21:17.898Z,1935
2017-08-12T14:22:28.179Z,2525
2017-08-12T14:23:38.150Z,1930
2017-08-12T14:24:48.435Z,1315
2017-08-12T14:25:58.718Z,1425
2017-08-12T14:27:08.691Z,1285
2017-08-12T14:28:18.976Z,1655
2017-08-12T14:29:29.258Z,1085
2017-08-12T14:30:39.542Z,1515
2017-08-12T14:31:49.824Z,1450
2017-08-12T14:32:59.793Z,1230
2017-08-12T14:34:10.082Z,595
2017-08-12T14:35:20.367Z,790
2017-08-12T14:36:30.655Z,860
2017-08-12T14:37:40.940Z,605
2017-08-12T14:38:50.915Z,1335
2017-08-12T14:40:00.576Z,450
2017-08-12T14:41:10.866Z,370
2017-08-12T14:42:21.163Z,265
2017-08-12T14:43:31.445Z,195
2017-08-12T14:44:41.409Z,135
2017-08-12T14:45:51.691Z,115
2017-08-12T14:47:01.975Z,95
2017-08-12T14:48:11.948Z,80
2017-08-12T14:49:21.917Z,80
2017-08-12T14:50:31.885Z,85
2017-08-12T14:51:42.166Z,95
2017-08-12T14:52:52.135Z,105
2017-08-12T14:54:02.414Z,120
2017-08-12T14:55:12.390Z,135
2017-08-12T14:56:22.691Z,150
2017-08-12T14:57:32.967Z,155
2017-08-12T14:58:43.247Z,155
2017-08-12T14:59:53.207Z,140
2017-08-12T15:01:03.485Z,145
2017-08-12T15:02:13.450Z,145
2017-08-12T15:03:23.733Z,155
2017-08-12T15:04:34.006Z,170
2017-08-12T15:05:44.301Z,185
2017-08-12T15:06:54.263Z,195
2017-08-12T15:08:03.605Z,200
2017-08-12T15:09:13.880Z,210
2017-08-12T15:10:23.843Z,220
2017-08-12T15:11:33.801Z,250
2017-08-12T15:12:43.760Z,290
2017-08-12T15:13:54.047Z,325
2017-08-12T15:15:04.037Z,320
2017-08-12T15:16:14.313Z,310
2017-08-12T15:17:24.292Z,310
2017-08-12T15:18:34.252Z,315
2017-08-12T15:19:44.532Z,300
2017-08-12T15:20:54.809Z,290
2017-08-12T15:22:05.093Z,270
2017-08-12T15:23:14.736Z,250
2017-08-12T15:24:24.388Z,225
2017-08-12T15:25:34.350Z,160
2017-08-12T15:26:44.309Z,130
2017-08-12T15:27:54.625Z,110
2017-08-12T15:29:04.900Z,100
2017-08-12T15:30:15.826Z,100
2017-08-12T15:31:25.820Z,95
2017-08-12T15:32:36.091Z,90
2017-08-12T15:33:46.062Z,80
2017-08-12T15:34:56.332Z,70
2017-08-12T15:36:06.292Z,65
2017-08-12T15:37:16.671Z,65
2017-08-12T15:38:26.629Z,65
2017-08-12T15:39:36.588Z,65
2017-08-12T15:40:46.549Z,65
2017-08-12T15:41:56.199Z,65
2017-08-12T15:43:06.159Z,70
2017-08-12T15:44:16.117Z,70
2017-08-12T15:45:26.392Z,75
2017-08-12T15:46:36.352Z,70
2017-08-12T15:47:46.628Z,60
2017-08-12T15:48:56.271Z,45
2017-08-12T15:50:06.548Z,35
2017-08-12T15:51:16.512Z,35
2017-08-12T15:52:26.784Z,30
2017-08-12T15:53:36.745Z,25
2017-08-12T15:54:46.708Z,25
2017-08-12T15:55:56.981Z,20
2017-08-12T15:57:06.963Z,20
2017-08-12T15:58:17.243Z,20
2017-08-12T15:59:27.519Z,25
2017-08-12T16:00:37.476Z,25
2017-08-12T16:01:47.756Z,25
2017-08-12T16:02:58.035Z,25
2017-08-12T16:04:08.305Z,25
2017-08-12T16:05:18.583Z,25
2017-08-12T16:06:28.858Z,25
2017-08-12T16:07:38.824Z,25
2017-08-12T16:08:48.784Z,25
2017-08-12T16:09:58.742Z,25
2017-08-12T16:11:09.022Z,25
2017-08-12T16:12:19.302Z,25
2017-08-12T16:13:29.262Z,25
2017-08-12T16:14:38.918Z,25
2017-08-12T16:15:48.697Z,30
2017-08-12T16:16:58.665Z,30
2017-08-12T16:18:08.628Z,35
2017-08-12T16:19:18.906Z,35
2017-08-12T16:20:28.861Z,40